Time;durP1;ratioP1;P1;durP2;ratioP2;P2;SDS_P1;SDS_P2;PMS_P1;PMS_P2;Temp;Humidity;BMP_temperature;BMP_pressure;BME280_temperature;BME280_humidity;BME280_pressure;Samples;Min_cycle;Max_cycle;Signal;HPM_P1;HPM_P2
2020/12/21 00:00:58;;;;;;;3.30;2.85;;;21.00;55.40;;;;;;5031973;28;20038;-53
2020/12/21 00:03:24;;;;;;;3.92;2.90;;;21.00;55.40;;;;;;5030708;28;20036;-52
2020/12/21 00:05:49;;;;;;;4.45;3.20;;;21.00;55.30;;;;;;5031355;28;20044;-52
2020/12/21 00:08:15;;;;;;;5.05;3.20;;;21.00;55.30;;;;;;5030737;28;20036;-38
2020/12/21 00:10:41;;;;;;;4.78;3.67;;;21.00;55.20;;;;;;5031473;28;20025;-50
2020/12/21 00:13:06;;;;;;;3.15;2.70;;;21.00;55.10;;;;;;5031363;28;20489;-59
2020/12/21 00:15:33;;;;;;;4.47;3.33;;;21.00;55.10;;;;;;5031433;28;20029;-53
2020/12/21 00:17:59;;;;;;;4.30;3.00;;;21.00;55.10;;;;;;5031269;28;20061;-52
2020/12/21 00:20:24;;;;;;;3.40;2.80;;;21.00;55.00;;;;;;5031007;28;20063;-53
2020/12/21 00:22:50;;;;;;;5.22;3.10;;;21.00;55.00;;;;;;5031858;28;20029;-50
2020/12/21 00:25:15;;;;;;;4.78;3.47;;;21.00;55.00;;;;;;5030264;28;20021;-61
2020/12/21 00:27:41;;;;;;;2.90;2.60;;;20.90;54.80;;;;;;5031696;28;20029;-50
2020/12/21 00:30:07;;;;;;;4.05;2.70;;;20.90;54.80;;;;;;5031162;28;20559;-54
2020/12/21 00:32:33;;;;;;;4.22;2.60;;;20.90;54.80;;;;;;5031316;28;20022;-51
2020/12/21 00:35:00;;;;;;;5.70;3.40;;;20.90;54.50;;;;;;5031161;28;20555;-53
2020/12/21 00:37:26;;;;;;;3.38;2.97;;;20.90;54.60;;;;;;5030526;28;20178;-50
2020/12/21 00:39:52;;;;;;;3.30;2.80;;;20.90;54.50;;;;;;5031310;28;20049;-57
2020/12/21 00:42:18;;;;;;;3.55;2.60;;;20.90;54.50;;;;;;5031004;28;20083;-49
2020/12/21 00:44:44;;;;;;;3.53;2.70;;;20.90;54.60;;;;;;5031057;28;20071;-67
2020/12/21 00:47:09;;;;;;;5.10;2.90;;;20.90;54.60;;;;;;5030655;28;20493;-60
2020/12/21 00:49:35;;;;;;;3.90;2.70;;;20.90;54.50;;;;;;5031336;28;20025;-49
2020/12/21 00:52:02;;;;;;;3.38;2.97;;;20.90;54.30;;;;;;5013518;28;20033;-60
2020/12/21 00:54:28;;;;;;;3.33;2.80;;;20.90;54.40;;;;;;5030636;28;20033;-40
2020/12/21 00:56:56;;;;;;;3.67;2.70;;;20.90;54.20;;;;;;5030953;28;20088;-53
2020/12/21 00:59:22;;;;;;;2.92;2.63;;;20.90;54.20;;;;;;5030569;28;20382;-53
2020/12/21 01:01:47;;;;;;;3.38;2.70;;;20.90;54.90;;;;;;5031962;28;20029;-52
2020/12/21 01:04:13;;;;;;;3.63;2.70;;;20.90;54.20;;;;;;5030943;28;20045;-53
2020/12/21 01:06:38;;;;;;;3.30;2.65;;;20.90;54.00;;;;;;5031129;28;20356;-67
2020/12/21 01:09:10;;;;;;;2.97;2.28;;;20.90;54.10;;;;;;5031040;28;20059;-55
2020/12/21 01:11:36;;;;;;;3.15;2.40;;;20.90;54.00;;;;;;5030584;28;20057;-51
2020/12/21 01:14:02;;;;;;;5.60;2.80;;;20.90;54.00;;;;;;5031026;28;20514;-53
2020/12/21 01:16:28;;;;;;;2.22;1.95;;;20.90;54.10;;;;;;5030044;28;20033;-47
2020/12/21 01:18:54;;;;;;;3.30;2.70;;;20.90;54.00;;;;;;5034802;28;20109;-50
2020/12/21 01:21:31;;;;;;;2.85;2.30;;;20.90;54.00;;;;;;5033843;28;20083;-50
2020/12/21 01:23:59;;;;;;;3.13;2.53;;;20.90;54.00;;;;;;5034888;28;20037;-50
2020/12/21 01:26:25;;;;;;;3.65;2.63;;;20.90;53.90;;;;;;5033473;28;20048;-51
2020/12/21 01:28:51;;;;;;;3.25;2.78;;;20.90;53.80;;;;;;5034394;28;20041;-40
2020/12/21 01:31:18;;;;;;;2.45;2.25;;;20.90;53.80;;;;;;5033887;28;20445;-52
2020/12/21 01:33:45;;;;;;;2.70;2.40;;;20.90;53.70;;;;;;5035029;28;20021;-50
2020/12/21 01:36:11;;;;;;;3.15;2.50;;;20.90;53.70;;;;;;5033449;28;20049;-60
2020/12/21 01:38:36;;;;;;;3.17;2.60;;;20.90;53.70;;;;;;5034137;28;20026;-50
2020/12/21 01:41:02;;;;;;;3.80;2.40;;;20.90;53.70;;;;;;5034601;28;20057;-58
2020/12/21 01:43:28;;;;;;;2.92;2.40;;;20.90;53.60;;;;;;5025626;28;20037;-48
2020/12/21 01:45:53;;;;;;;4.43;2.63;;;20.90;53.60;;;;;;5034400;28;20030;-50
2020/12/21 01:48:20;;;;;;;3.03;2.60;;;20.90;53.60;;;;;;5033530;28;20390;-53
2020/12/21 01:50:45;;;;;;;3.55;2.60;;;20.90;53.50;;;;;;5034345;28;20021;-51
2020/12/21 01:53:11;;;;;;;3.83;2.58;;;20.90;53.50;;;;;;5033979;28;20025;-58
2020/12/21 01:55:42;;;;;;;2.92;2.28;;;20.90;53.50;;;;;;5049290;28;20095;-47
2020/12/21 01:58:08;;;;;;;2.90;2.50;;;20.90;53.50;;;;;;5033811;28;20036;-51
2020/12/21 02:00:34;;;;;;;2.85;2.30;;;20.80;53.40;;;;;;5033612;28;20038;-52
2020/12/21 02:03:00;;;;;;;4.07;2.80;;;20.80;53.40;;;;;;5034400;28;20112;-51
2020/12/21 02:05:26;;;;;;;2.85;2.22;;;20.80;53.30;;;;;;5033131;28;20029;-50
2020/12/21 02:07:52;;;;;;;2.83;2.55;;;20.80;53.40;;;;;;5033986;28;20482;-49
2020/12/21 02:10:19;;;;;;;2.75;2.40;;;20.80;53.40;;;;;;5033326;28;20037;-49
2020/12/21 02:12:45;;;;;;;2.42;2.15;;;20.80;53.30;;;;;;5033946;28;20041;-49
2020/12/21 02:15:11;;;;;;;4.53;2.53;;;20.80;53.20;;;;;;5033396;28;20029;-59
2020/12/21 02:17:36;;;;;;;2.78;2.25;;;20.80;53.20;;;;;;5033368;28;20041;-52
2020/12/21 02:20:02;;;;;;;3.60;2.53;;;20.80;53.20;;;;;;5033744;28;20104;-56
2020/12/21 02:22:28;;;;;;;2.53;2.30;;;20.80;53.10;;;;;;5032817;28;20470;-50
2020/12/21 02:24:54;;;;;;;3.03;2.15;;;20.80;53.10;;;;;;5033915;28;20030;-53
2020/12/21 02:27:19;;;;;;;2.75;2.40;;;20.80;53.10;;;;;;5032122;28;20029;-53
2020/12/21 02:29:47;;;;;;;3.15;2.53;;;20.80;53.10;;;;;;5033555;28;20033;-51
2020/12/21 02:32:13;;;;;;;2.83;2.15;;;20.80;52.90;;;;;;5033511;28;20060;-58
2020/12/21 02:34:38;;;;;;;2.47;2.13;;;20.80;53.00;;;;;;5033342;28;20068;-49
2020/12/21 02:37:04;;;;;;;3.70;2.60;;;20.80;52.90;;;;;;5033429;28;20382;-50
2020/12/21 02:39:29;;;;;;;3.40;2.60;;;20.80;52.90;;;;;;5031598;28;20037;-52
2020/12/21 02:41:55;;;;;;;3.03;2.65;;;20.80;52.90;;;;;;5033274;28;20029;-49
2020/12/21 02:44:21;;;;;;;3.08;2.70;;;20.80;52.90;;;;;;5032424;28;20471;-52
2020/12/21 02:46:46;;;;;;;3.45;2.78;;;20.80;52.80;;;;;;5033057;28;20033;-64
2020/12/21 02:49:13;;;;;;;3.65;2.42;;;20.80;52.80;;;;;;5032981;28;20033;-57
2020/12/21 02:51:38;;;;;;;3.58;2.85;;;20.80;52.80;;;;;;5033062;28;20112;-51
2020/12/21 02:54:04;;;;;;;4.45;2.65;;;20.80;52.70;;;;;;5032702;28;20112;-49
2020/12/21 02:56:30;;;;;;;3.40;2.70;;;20.80;52.70;;;;;;5032343;28;20837;-50
2020/12/21 02:58:55;;;;;;;2.75;2.20;;;20.80;52.70;;;;;;5033043;28;20487;-53
2020/12/21 03:01:21;;;;;;;3.83;2.53;;;20.80;52.70;;;;;;5032023;28;20048;-51
2020/12/21 03:03:47;;;;;;;3.03;2.50;;;20.80;52.60;;;;;;5033336;28;20423;-51
2020/12/21 03:06:12;;;;;;;3.13;2.50;;;20.80;52.60;;;;;;5032196;28;20156;-64
2020/12/21 03:08:38;;;;;;;2.95;2.63;;;20.80;52.60;;;;;;5032713;28;20359;-51
2020/12/21 03:11:08;;;;;;;3.50;2.50;;;20.80;52.60;;;;;;5032493;28;20427;-43
2020/12/21 03:13:33;;;;;;;5.07;2.60;;;20.80;52.50;;;;;;5031358;28;20040;-48
2020/12/21 03:15:59;;;;;;;2.20;2.00;;;20.80;52.50;;;;;;5032402;28;20033;-54
2020/12/21 03:18:24;;;;;;;3.30;2.47;;;20.80;52.50;;;;;;5031990;28;20493;-58
2020/12/21 03:20:50;;;;;;;2.78;2.17;;;20.80;52.40;;;;;;5032759;28;20029;-49
2020/12/21 03:23:16;;;;;;;2.60;2.25;;;20.80;52.40;;;;;;5031870;28;20181;-52
2020/12/21 03:25:41;;;;;;;2.70;2.30;;;20.80;52.30;;;;;;5032414;28;20097;-52
2020/12/21 03:28:07;;;;;;;4.72;2.50;;;20.80;52.30;;;;;;5032596;28;20116;-49
2020/12/21 03:30:33;;;;;;;3.00;2.53;;;20.80;52.30;;;;;;5031677;28;20212;-51
2020/12/21 03:32:58;;;;;;;2.72;2.17;;;20.80;52.20;;;;;;5032214;28;20120;-47
2020/12/21 03:35:25;;;;;;;3.30;2.33;;;20.80;52.20;;;;;;5023233;28;20052;-49
2020/12/21 03:37:51;;;;;;;3.92;2.40;;;20.80;52.10;;;;;;5032263;28;20043;-50
2020/12/21 03:40:16;;;;;;;3.38;2.38;;;20.80;52.10;;;;;;5030612;28;20112;-55
2020/12/21 03:42:42;;;;;;;3.40;2.40;;;20.80;52.10;;;;;;5032627;28;20052;-49
2020/12/21 03:45:07;;;;;;;3.35;2.53;;;20.80;52.00;;;;;;5032265;28;20033;-49
2020/12/21 03:47:33;;;;;;;3.00;2.28;;;20.80;52.00;;;;;;5031116;28;20173;-49
2020/12/21 03:49:59;;;;;;;2.67;2.00;;;20.70;51.90;;;;;;5032244;28;20057;-52
2020/12/21 03:52:24;;;;;;;2.83;2.53;;;20.80;52.00;;;;;;5030991;28;20052;-44
2020/12/21 03:54:50;;;;;;;3.15;2.47;;;20.80;51.90;;;;;;5032084;28;20036;-51
2020/12/21 03:57:16;;;;;;;2.95;2.65;;;20.80;51.90;;;;;;5031250;28;20064;-57
2020/12/21 03:59:41;;;;;;;3.00;2.33;;;20.80;51.80;;;;;;5031800;28;20030;-62
2020/12/21 04:02:07;;;;;;;3.65;2.30;;;20.80;51.80;;;;;;5031615;28;20029;-63
2020/12/21 04:04:33;;;;;;;2.88;2.50;;;20.80;51.70;;;;;;5031372;28;20079;-54
2020/12/21 04:06:58;;;;;;;3.08;2.13;;;20.80;51.70;;;;;;5031646;28;20589;-50
2020/12/21 04:09:24;;;;;;;3.15;2.33;;;20.80;51.70;;;;;;5046561;28;20029;-70
2020/12/21 04:11:50;;;;;;;2.88;2.35;;;20.80;51.60;;;;;;5031652;28;20390;-50
2020/12/21 04:14:15;;;;;;;3.25;2.33;;;20.80;51.60;;;;;;5031073;28;20085;-60
2020/12/21 04:16:41;;;;;;;2.03;1.75;;;20.80;51.60;;;;;;5031274;28;20152;-50
2020/12/21 04:19:06;;;;;;;3.05;2.40;;;20.80;51.50;;;;;;5031697;28;20109;-55
2020/12/21 04:21:32;;;;;;;3.30;2.47;;;20.80;51.50;;;;;;5030978;28;20025;-50
2020/12/21 04:23:58;;;;;;;2.85;2.53;;;20.80;51.50;;;;;;5031688;28;20069;-55
2020/12/21 04:26:24;;;;;;;2.67;2.17;;;20.80;51.50;;;;;;5030370;28;20033;-50
2020/12/21 04:28:49;;;;;;;2.55;2.28;;;20.80;51.40;;;;;;5031408;28;20030;-52
2020/12/21 04:31:15;;;;;;;2.78;2.35;;;20.80;51.40;;;;;;5031331;28;20465;-57
2020/12/21 04:33:41;;;;;;;4.18;2.78;;;20.80;51.40;;;;;;5030806;28;20075;-54
2020/12/21 04:36:11;;;;;;;3.45;2.38;;;20.80;51.30;;;;;;5031529;28;20092;-54
2020/12/21 04:38:41;;;;;;;3.05;2.20;;;20.80;51.30;;;;;;5030593;28;20132;-49
2020/12/21 04:41:07;;;;;;;3.58;2.25;;;20.80;51.20;;;;;;5031359;28;20041;-49
2020/12/21 04:43:33;;;;;;;4.35;2.30;;;20.80;51.20;;;;;;5030449;28;20413;-53
2020/12/21 04:46:04;;;;;;;2.78;2.25;;;20.80;51.20;;;;;;5031141;28;20030;-51
2020/12/21 04:48:31;;;;;;;2.93;2.10;;;20.80;51.10;;;;;;5030384;28;20040;-50
2020/12/21 04:50:56;;;;;;;2.88;2.15;;;20.80;51.10;;;;;;5031352;28;20394;-49
2020/12/21 04:53:23;;;;;;;2.92;2.03;;;20.80;51.10;;;;;;5034022;28;20033;-51
2020/12/21 04:55:49;;;;;;;3.38;2.25;;;20.80;51.10;;;;;;5035333;28;20120;-51
2020/12/21 04:58:16;;;;;;;4.07;2.20;;;20.80;51.00;;;;;;5034949;28;20104;-57
2020/12/21 05:00:42;;;;;;;3.20;1.92;;;20.80;51.00;;;;;;5035210;28;20036;-51
2020/12/21 05:03:08;;;;;;;2.53;2.15;;;20.80;51.00;;;;;;5034720;28;20033;-50
2020/12/21 05:05:36;;;;;;;3.13;2.38;;;20.80;50.90;;;;;;5034276;28;20034;-57
2020/12/21 05:08:16;;;;;;;2.83;2.30;;;20.80;50.80;;;;;;5034850;28;20072;-52
2020/12/21 05:10:45;;;;;;;2.92;1.92;;;20.80;50.80;;;;;;5034947;28;20025;-43
2020/12/21 05:13:12;;;;;;;2.53;1.88;;;20.80;50.80;;;;;;5034972;28;20029;-52
2020/12/21 05:15:38;;;;;;;3.47;2.22;;;20.80;50.80;;;;;;5034103;28;20256;-67
2020/12/21 05:18:05;;;;;;;2.83;2.15;;;20.80;50.70;;;;;;5034770;28;20522;-44
2020/12/21 05:20:30;;;;;;;2.70;2.00;;;20.80;50.70;;;;;;5034016;28;20360;-50
2020/12/21 05:22:56;;;;;;;3.15;2.10;;;20.80;50.70;;;;;;5034688;28;20029;-51
2020/12/21 05:25:22;;;;;;;2.30;2.10;;;20.80;50.70;;;;;;5033730;28;20040;-49
2020/12/21 05:27:47;;;;;;;2.78;2.15;;;20.80;50.70;;;;;;5034840;28;20064;-56
2020/12/21 05:30:13;;;;;;;2.63;1.90;;;20.80;50.70;;;;;;5034103;28;20033;-56
2020/12/21 05:32:39;;;;;;;2.65;2.10;;;20.80;50.70;;;;;;5033522;28;20128;-49
2020/12/21 05:35:07;;;;;;;2.47;1.95;;;20.80;50.60;;;;;;5034109;28;20052;-51
2020/12/21 05:37:32;;;;;;;3.05;2.15;;;20.80;50.60;;;;;;5031436;28;20025;-46
2020/12/21 05:39:58;;;;;;;3.20;1.70;;;20.80;50.60;;;;;;5034421;28;20034;-50
2020/12/21 05:42:25;;;;;;;2.38;2.13;;;20.80;50.60;;;;;;5034131;28;20026;-47
2020/12/21 05:44:58;;;;;;;2.90;2.00;;;20.80;50.60;;;;;;5034458;28;20116;-48
2020/12/21 05:47:28;;;;;;;3.25;2.10;;;20.80;50.70;;;;;;5033553;28;20026;-48
2020/12/21 05:50:02;;;;;;;4.25;1.98;;;20.80;50.70;;;;;;5034170;28;20478;-48
2020/12/21 05:52:35;;;;;;;2.30;1.80;;;20.80;50.70;;;;;;5033599;28;20538;-53
2020/12/21 05:55:11;;;;;;;2.47;1.77;;;20.80;51.10;;;;;;5034561;28;20573;-43
2020/12/21 05:57:38;;;;;;;2.50;2.00;;;20.90;51.20;;;;;;5033806;28;20033;-47
2020/12/21 06:00:07;;;;;;;2.95;1.77;;;20.90;51.00;;;;;;5032506;28;20044;-49
2020/12/21 06:02:34;;;;;;;3.33;2.13;;;20.90;51.00;;;;;;5030432;28;20083;-50
2020/12/21 06:05:11;;;;;;;3.40;1.92;;;21.00;51.00;;;;;;5033956;28;20053;-50
2020/12/21 06:07:38;;;;;;;2.45;1.90;;;21.00;51.20;;;;;;5032738;28;20174;-51
2020/12/21 06:10:06;;;;;;;2.60;1.92;;;21.00;51.00;;;;;;5034152;28;20112;-62
2020/12/21 06:12:45;;;;;;;3.95;2.47;;;21.00;51.00;;;;;;5032858;28;20025;-49
2020/12/21 06:15:14;;;;;;;3.10;2.10;;;21.10;51.00;;;;;;5026890;28;20389;-50
2020/12/21 06:17:40;;;;;;;2.60;2.05;;;21.10;50.90;;;;;;5033088;28;21980;-49
2020/12/21 06:20:07;;;;;;;2.45;2.03;;;21.10;50.90;;;;;;5033705;28;20447;-51
2020/12/21 06:22:34;;;;;;;2.42;1.92;;;21.20;50.90;;;;;;5048355;28;20021;-49
2020/12/21 06:25:00;;;;;;;2.25;1.70;;;21.20;50.80;;;;;;5033485;28;20112;-44
2020/12/21 06:27:36;;;;;;;2.53;1.92;;;21.30;50.80;;;;;;5032930;28;20100;-52
2020/12/21 06:30:03;;;;;;;5.03;2.05;;;21.30;50.90;;;;;;5033730;28;20037;-46
2020/12/21 06:32:34;;;;;;;3.55;2.10;;;21.30;50.70;;;;;;5032365;28;20065;-47
2020/12/21 06:35:00;;;;;;;3.80;2.20;;;21.30;50.50;;;;;;5033449;28;20188;-47
2020/12/21 06:37:26;;;;;;;3.10;1.92;;;21.30;50.60;;;;;;5032125;28;20029;-49
2020/12/21 06:40:06;;;;;;;3.15;2.03;;;21.30;50.60;;;;;;5033875;28;20025;-67
2020/12/21 06:42:32;;;;;;;2.70;2.00;;;21.30;50.70;;;;;;5032244;28;20523;-47
2020/12/21 06:44:58;;;;;;;2.00;1.70;;;21.30;50.50;;;;;;5033526;28;20044;-48
2020/12/21 06:47:26;;;;;;;3.13;2.47;;;21.30;50.20;;;;;;5032399;28;20109;-53
2020/12/21 06:49:52;;;;;;;3.80;1.90;;;21.30;50.10;;;;;;5032653;28;20037;-46
2020/12/21 06:52:19;;;;;;;2.50;2.30;;;21.30;49.90;;;;;;5032848;28;20059;-57
2020/12/21 06:54:44;;;;;;;2.97;2.17;;;21.30;49.80;;;;;;5032354;28;20049;-47
2020/12/21 06:57:11;;;;;;;2.55;2.13;;;21.30;49.70;;;;;;5031532;28;20029;-47
2020/12/21 06:59:37;;;;;;;3.05;2.00;;;21.30;49.60;;;;;;5031074;28;20048;-47
2020/12/21 07:02:03;;;;;;;3.60;2.40;;;21.30;49.20;;;;;;5026921;28;20386;-51
2020/12/21 07:04:31;;;;;;;3.92;2.88;;;21.20;47.40;;;;;;5031711;28;20037;-51
2020/12/21 07:07:05;;;;;;;6.05;3.28;;;21.00;44.70;;;;;;5032631;28;20033;-54
2020/12/21 07:09:31;;;;;;;4.80;3.05;;;20.80;42.90;;;;;;5031585;28;20356;-55
2020/12/21 07:11:59;;;;;;;3.53;2.80;;;20.70;42.30;;;;;;5032894;28;20080;-50
2020/12/21 07:14:27;;;;;;;6.22;3.10;;;20.60;41.80;;;;;;5031273;28;20108;-52
2020/12/21 07:17:07;;;;;;;4.47;2.72;;;20.50;41.70;;;;;;5032664;28;20033;-50
2020/12/21 07:19:34;;;;;;;3.00;2.40;;;20.40;41.60;;;;;;5031718;28;20030;-53
2020/12/21 07:22:04;;;;;;;3.05;2.63;;;20.40;41.00;;;;;;5032727;28;20164;-52
2020/12/21 07:24:30;;;;;;;4.85;2.90;;;20.30;41.00;;;;;;5031441;28;20375;-59
2020/12/21 07:26:56;;;;;;;5.68;3.28;;;20.20;41.00;;;;;;5032108;28;20091;-53
2020/12/21 07:29:23;;;;;;;3.67;2.85;;;20.20;41.10;;;;;;5031002;28;20402;-59
2020/12/21 07:31:49;;;;;;;4.90;2.67;;;20.10;41.10;;;;;;5031610;28;20026;-54
2020/12/21 07:34:15;;;;;;;3.63;2.53;;;20.10;41.00;;;;;;5032147;28;20033;-45
2020/12/21 07:36:42;;;;;;;5.00;2.72;;;20.10;41.00;;;;;;5029453;28;20131;-52
2020/12/21 07:39:08;;;;;;;4.25;3.20;;;20.10;41.20;;;;;;5030865;28;20497;-53
2020/12/21 07:41:37;;;;;;;4.30;3.78;;;20.10;41.20;;;;;;5031707;28;20029;-55
2020/12/21 07:44:02;;;;;;;4.88;4.20;;;20.00;41.00;;;;;;5032243;28;20441;-53
2020/12/21 07:46:37;;;;;;;4.75;4.25;;;19.90;40.90;;;;;;5046666;28;20113;-54
2020/12/21 07:49:03;;;;;;;4.47;4.00;;;19.90;40.70;;;;;;5032122;28;20049;-53
2020/12/21 07:51:31;;;;;;;6.25;4.50;;;19.90;40.70;;;;;;5031125;28;20088;-54
2020/12/21 07:54:00;;;;;;;5.18;4.18;;;19.90;40.70;;;;;;5011311;28;20088;-52
2020/12/21 07:56:25;;;;;;;5.18;3.80;;;19.90;40.70;;;;;;5029437;28;20029;-52
2020/12/21 07:58:51;;;;;;;4.88;3.75;;;19.90;40.70;;;;;;5031733;28;20470;-50
2020/12/21 08:01:22;;;;;;;5.65;3.15;;;19.80;40.60;;;;;;5031154;28;20454;-51
2020/12/21 08:03:52;;;;;;;4.50;3.00;;;19.80;40.40;;;;;;5031290;28;20120;-58
2020/12/21 08:06:22;;;;;;;5.00;3.35;;;19.80;40.60;;;;;;5031243;28;20482;-52
2020/12/21 08:08:48;;;;;;;4.93;2.70;;;19.80;40.30;;;;;;5030913;28;20133;-68
2020/12/21 08:11:16;;;;;;;3.58;2.92;;;19.80;40.40;;;;;;5031379;28;20024;-48
2020/12/21 08:13:49;;;;;;;4.65;3.00;;;19.80;40.30;;;;;;5031155;28;20608;-48
2020/12/21 08:16:16;;;;;;;3.88;2.78;;;19.80;40.30;;;;;;5031588;28;20105;-48
2020/12/21 08:18:50;;;;;;;4.45;2.65;;;19.70;40.30;;;;;;5030847;28;20060;-46
2020/12/21 08:21:16;;;;;;;6.18;3.50;;;19.70;40.40;;;;;;5030886;28;20036;-48
2020/12/21 08:23:54;;;;;;;4.50;2.42;;;19.80;40.60;;;;;;5030807;28;20280;-44
2020/12/21 08:26:20;;;;;;;9.05;4.28;;;19.70;40.70;;;;;;5029793;28;20033;-48
2020/12/21 08:28:48;;;;;;;4.60;3.50;;;19.70;40.80;;;;;;5030598;28;20086;-47
2020/12/21 08:31:23;;;;;;;6.38;4.20;;;19.70;41.00;;;;;;5030543;28;20029;-47
2020/12/21 08:34:03;;;;;;;8.98;4.20;;;19.70;40.90;;;;;;5025235;28;20037;-44
2020/12/21 08:36:29;;;;;;;9.05;4.90;;;19.70;41.00;;;;;;5025323;28;20139;-52
2020/12/21 08:39:07;;;;;;;5.55;4.40;;;19.70;40.90;;;;;;5030956;28;20507;-52
2020/12/21 08:41:42;;;;;;;5.47;3.00;;;19.60;41.60;;;;;;5030480;28;20084;-44
2020/12/21 08:44:13;;;;;;;4.57;3.78;;;19.60;40.90;;;;;;5030554;28;20037;-54
2020/12/21 08:46:59;;;;;;;5.10;3.78;;;19.70;41.00;;;;;;5045925;28;20034;-48
2020/12/21 08:49:28;;;;;;;5.50;3.72;;;19.70;41.20;;;;;;5030232;28;20494;-58
2020/12/21 08:52:01;;;;;;;5.97;3.67;;;19.70;41.40;;;;;;5030860;28;20044;-55
2020/12/21 08:54:26;;;;;;;5.35;4.00;;;19.60;41.30;;;;;;5030390;28;20030;-55
2020/12/21 08:56:53;;;;;;;4.93;3.75;;;19.70;41.40;;;;;;5030709;28;20524;-52
2020/12/21 08:59:19;;;;;;;5.88;4.55;;;19.70;41.50;;;;;;5031101;28;20037;-51
2020/12/21 09:01:45;;;;;;;7.82;4.55;;;19.60;41.50;;;;;;5029543;28;20076;-47
2020/12/21 09:04:12;;;;;;;5.75;4.50;;;19.60;41.50;;;;;;5029638;28;20029;-50
2020/12/21 09:06:38;;;;;;;7.82;4.90;;;19.60;41.50;;;;;;5028207;28;20029;-52
2020/12/21 09:09:05;;;;;;;15.23;5.13;;;19.70;42.20;;;;;;5028858;28;20120;-47
2020/12/21 09:11:31;;;;;;;7.82;4.05;;;19.90;43.00;;;;;;5027790;28;20371;-40
2020/12/21 09:13:57;;;;;;;10.57;3.90;;;20.10;43.60;;;;;;5027877;28;20116;-46
2020/12/21 09:16:27;;;;;;;9.95;3.92;;;20.20;43.30;;;;;;5024992;28;20606;-53
2020/12/21 09:18:54;;;;;;;12.45;4.20;;;20.40;43.60;;;;;;5035525;28;20039;-48
2020/12/21 09:21:39;;;;;;;7.15;3.45;;;20.50;43.90;;;;;;5029954;28;20398;-52
2020/12/21 09:24:05;;;;;;;7.68;3.97;;;20.70;43.60;;;;;;5029133;28;20032;-49
2020/12/21 09:26:30;;;;;;;14.48;3.95;;;20.80;43.60;;;;;;5029150;28;20021;-49
2020/12/21 09:28:56;;;;;;;8.52;3.30;;;20.90;43.80;;;;;;5030264;28;20032;-54
2020/12/21 09:31:23;;;;;;;8.80;3.95;;;20.90;43.90;;;;;;5029777;28;20021;-61
2020/12/21 09:33:50;;;;;;;11.38;3.72;;;21.00;44.00;;;;;;5024299;28;20057;-54
2020/12/21 09:36:18;;;;;;;9.73;3.55;;;21.00;44.10;;;;;;5028203;28;20112;-54
2020/12/21 09:38:45;;;;;;;8.90;3.88;;;21.00;44.30;;;;;;5030626;28;20296;-43
2020/12/21 09:41:16;;;;;;;6.68;3.35;;;21.00;44.80;;;;;;5032725;28;20063;-52
2020/12/21 09:43:44;;;;;;;4.82;2.85;;;21.00;44.80;;;;;;5031877;28;20071;-46
2020/12/21 09:46:11;;;;;;;8.55;3.75;;;21.00;45.10;;;;;;5032325;28;20053;-57
2020/12/21 09:48:38;;;;;;;4.97;3.10;;;21.00;45.20;;;;;;5031829;28;20449;-48
2020/12/21 09:51:04;;;;;;;8.65;3.17;;;21.00;45.30;;;;;;5032432;28;20045;-47
2020/12/21 09:53:29;;;;;;;6.65;3.20;;;21.00;45.40;;;;;;5031523;28;20021;-43
2020/12/21 09:55:55;;;;;;;5.45;3.20;;;21.00;45.40;;;;;;5032408;28;20025;-45
2020/12/21 09:58:21;;;;;;;8.55;3.80;;;21.10;45.60;;;;;;5032519;28;20040;-52
2020/12/21 10:00:47;;;;;;;9.43;3.10;;;21.10;45.40;;;;;;5031920;28;20788;-48
2020/12/21 10:03:12;;;;;;;11.20;3.22;;;21.20;45.50;;;;;;5032884;28;20463;-47
2020/12/21 10:05:38;;;;;;;6.18;3.15;;;21.30;45.60;;;;;;5032169;28;20029;-47
2020/12/21 10:08:04;;;;;;;10.80;3.30;;;21.30;45.60;;;;;;5032555;28;20371;-46
2020/12/21 10:10:29;;;;;;;5.43;3.08;;;21.30;46.00;;;;;;5032555;28;20402;-46
2020/12/21 10:12:55;;;;;;;10.48;3.60;;;21.30;45.80;;;;;;5028185;28;20471;-46
2020/12/21 10:15:21;;;;;;;16.88;3.20;;;21.30;46.50;;;;;;5027829;28;20398;-44
2020/12/21 10:17:46;;;;;;;15.35;3.22;;;21.30;46.30;;;;;;5026507;28;20787;-45
2020/12/21 10:20:12;;;;;;;10.93;2.95;;;21.40;46.50;;;;;;5032999;28;20033;-46
2020/12/21 10:22:38;;;;;;;12.57;2.95;;;21.30;46.60;;;;;;5032181;28;20793;-49
2020/12/21 10:25:03;;;;;;;9.52;2.97;;;21.30;46.70;;;;;;5032621;28;20029;-51
2020/12/21 10:27:30;;;;;;;11.10;3.33;;;21.30;46.90;;;;;;5032184;28;20037;-52
2020/12/21 10:29:56;;;;;;;9.73;3.08;;;21.40;47.30;;;;;;5032795;28;20030;-47
2020/12/21 10:32:21;;;;;;;10.35;3.00;;;21.40;47.20;;;;;;5032760;28;20029;-48
2020/12/21 10:34:47;;;;;;;5.75;3.20;;;21.40;47.10;;;;;;5031856;28;20037;-51
2020/12/21 10:37:13;;;;;;;14.20;4.25;;;21.40;47.10;;;;;;5032772;28;20025;-46
2020/12/21 10:39:38;;;;;;;11.35;3.00;;;21.40;47.30;;;;;;5028186;28;20474;-49
2020/12/21 10:42:06;;;;;;;9.55;3.17;;;21.40;47.20;;;;;;5027694;28;20034;-44
2020/12/21 10:44:31;;;;;;;6.70;3.00;;;21.30;47.30;;;;;;5029841;28;20064;-45
2020/12/21 10:46:58;;;;;;;7.00;2.78;;;21.30;47.60;;;;;;5032954;28;20475;-46
2020/12/21 10:49:24;;;;;;;9.48;4.18;;;21.30;47.80;;;;;;5032201;28;20061;-52
2020/12/21 10:51:50;;;;;;;8.90;2.88;;;21.30;47.80;;;;;;5032157;28;20064;-45
2020/12/21 10:54:16;;;;;;;10.80;3.20;;;21.30;47.90;;;;;;5032949;28;20155;-48
2020/12/21 10:56:41;;;;;;;9.95;2.90;;;21.30;48.10;;;;;;5032489;28;20079;-47
2020/12/21 10:59:07;;;;;;;7.60;2.88;;;21.30;48.20;;;;;;5031709;28;20037;-47
2020/12/21 11:01:33;;;;;;;9.00;3.20;;;21.30;48.30;;;;;;5031886;28;20429;-53
2020/12/21 11:03:59;;;;;;;8.15;3.33;;;21.30;48.60;;;;;;5031677;28;20033;-47
2020/12/21 11:06:25;;;;;;;7.20;3.20;;;21.10;46.70;;;;;;5032749;28;20029;-48
2020/12/21 11:08:52;;;;;;;8.40;3.38;;;21.10;48.40;;;;;;5030787;28;20037;-49
2020/12/21 11:11:28;;;;;;;5.07;2.58;;;21.10;48.40;;;;;;5031880;28;20037;-47
2020/12/21 11:13:54;;;;;;;4.88;2.90;;;21.20;49.40;;;;;;5032925;28;20036;-46
2020/12/21 11:16:21;;;;;;;8.23;3.28;;;21.20;49.00;;;;;;5032735;28;20029;-47
2020/12/21 11:18:47;;;;;;;7.15;2.95;;;21.20;49.20;;;;;;5030595;28;20037;-53
2020/12/21 11:21:13;;;;;;;8.00;3.35;;;21.20;49.20;;;;;;5032524;28;20117;-47
2020/12/21 11:23:40;;;;;;;10.75;3.15;;;21.30;50.10;;;;;;5031940;28;20040;-49
2020/12/21 11:26:06;;;;;;;4.45;2.95;;;21.30;50.20;;;;;;5030550;28;20057;-49
2020/12/21 11:28:31;;;;;;;10.27;2.65;;;21.30;50.10;;;;;;5031596;28;20088;-49
2020/12/21 11:30:57;;;;;;;5.80;3.30;;;21.30;50.40;;;;;;5032157;28;20489;-49
2020/12/21 11:33:23;;;;;;;4.03;3.00;;;21.40;50.80;;;;;;5032720;28;20425;-50
2020/12/21 11:35:49;;;;;;;5.18;2.88;;;21.40;51.70;;;;;;5031261;28;20046;-48
2020/12/21 11:38:15;;;;;;;5.35;2.70;;;21.30;51.10;;;;;;5047142;28;20505;-49
2020/12/21 11:40:42;;;;;;;6.07;2.60;;;21.40;51.50;;;;;;5031484;28;20032;-48
2020/12/21 11:43:09;;;;;;;5.22;2.65;;;21.40;51.70;;;;;;5032058;28;20026;-48
2020/12/21 11:45:35;;;;;;;7.75;2.88;;;21.40;52.00;;;;;;5030309;28;20351;-50
2020/12/21 11:48:01;;;;;;;6.88;3.10;;;21.40;51.90;;;;;;5031940;28;20040;-48
2020/12/21 11:50:33;;;;;;;7.72;3.25;;;21.30;51.40;;;;;;5031743;28;20030;-62
2020/12/21 11:52:59;;;;;;;5.30;2.72;;;21.30;51.10;;;;;;5032048;28;20033;-48
2020/12/21 11:55:25;;;;;;;4.80;2.90;;;21.20;50.80;;;;;;5031943;28;20032;-47
2020/12/21 11:57:50;;;;;;;7.80;3.75;;;21.20;50.50;;;;;;5030568;28;20033;-49
2020/12/21 12:00:16;;;;;;;10.27;3.40;;;21.20;50.30;;;;;;5031842;28;20033;-49
2020/12/21 12:02:42;;;;;;;5.72;2.47;;;21.20;50.10;;;;;;5030932;28;20038;-45
2020/12/21 12:05:12;;;;;;;4.80;2.65;;;21.20;49.80;;;;;;5046971;28;20057;-46
2020/12/21 12:07:38;;;;;;;4.55;2.58;;;21.20;49.70;;;;;;5030190;28;20032;-59
2020/12/21 12:10:05;;;;;;;3.97;2.47;;;21.20;49.80;;;;;;5030513;28;20074;-51
2020/12/21 12:12:33;;;;;;;5.70;2.63;;;21.10;49.60;;;;;;5031294;28;20172;-59
2020/12/21 12:14:59;;;;;;;5.07;2.58;;;21.20;49.50;;;;;;5031519;28;20061;-49
2020/12/21 12:17:25;;;;;;;4.60;2.00;;;21.10;49.40;;;;;;5031544;28;20068;-50
2020/12/21 12:19:51;;;;;;;3.42;2.40;;;21.20;49.40;;;;;;5030895;28;20025;-49
2020/12/21 12:22:17;;;;;;;4.95;2.45;;;21.20;49.40;;;;;;5031857;28;20474;-46
2020/12/21 12:24:42;;;;;;;5.70;1.88;;;21.10;49.30;;;;;;5030676;28;20037;-47
2020/12/21 12:27:08;;;;;;;5.53;2.30;;;21.20;49.20;;;;;;5027086;28;20041;-49
2020/12/21 12:29:34;;;;;;;8.23;2.22;;;21.20;49.20;;;;;;5030673;28;20108;-55
2020/12/21 12:32:00;;;;;;;5.68;2.10;;;21.20;49.10;;;;;;5030874;28;20021;-62
2020/12/21 12:34:26;;;;;;;4.18;2.08;;;21.20;49.20;;;;;;5030432;28;20057;-53
2020/12/21 12:36:52;;;;;;;2.97;1.75;;;21.20;49.20;;;;;;5029060;28;20775;-53
2020/12/21 12:39:17;;;;;;;8.30;2.47;;;21.20;49.10;;;;;;5030994;28;20065;-51
2020/12/21 12:41:43;;;;;;;5.45;2.22;;;21.20;49.20;;;;;;5030695;28;20026;-53
2020/12/21 12:44:10;;;;;;;3.75;2.47;;;21.20;49.30;;;;;;5031259;28;20083;-59